Time;durP1;ratioP1;P1;durP2;ratioP2;P2;SDS_P1;SDS_P2;PMS_P1;PMS_P2;Temp;Humidity;BMP_temperature;BMP_pressure;BME280_temperature;BME280_humidity;BME280_pressure;Samples;Min_cycle;Max_cycle;Signal;HPM_P1;HPM_P2
2022/03/26 00:02:04;;;;;;;48.35;18.52;;;8.90;99.90;;;;;;6012267;23;20019;-87
2022/03/26 00:04:32;;;;;;;44.40;18.10;;;8.90;99.90;;;;;;5988445;23;20016;-86
2022/03/26 00:06:59;;;;;;;44.92;18.65;;;8.90;99.90;;;;;;5988331;23;20086;-88
2022/03/26 00:09:26;;;;;;;45.63;18.98;;;8.90;99.90;;;;;;5988249;23;20020;-85
2022/03/26 00:11:52;;;;;;;44.20;18.63;;;8.80;99.90;;;;;;5988409;23;20034;-85
2022/03/26 00:14:19;;;;;;;40.45;16.58;;;8.80;99.90;;;;;;5988143;23;20019;-85
2022/03/26 00:16:46;;;;;;;38.97;17.20;;;8.70;99.90;;;;;;5988009;23;20059;-87
2022/03/26 00:19:14;;;;;;;42.28;17.20;;;8.70;99.90;;;;;;6011628;23;20012;-86
2022/03/26 00:21:42;;;;;;;40.75;18.85;;;8.70;99.90;;;;;;5988100;23;20037;-85
2022/03/26 00:24:09;;;;;;;36.33;15.82;;;8.70;99.90;;;;;;5988002;23;20012;-88
2022/03/26 00:26:35;;;;;;;35.30;16.35;;;8.70;99.90;;;;;;5995102;23;20012;-86
2022/03/26 00:29:06;;;;;;;42.67;18.15;;;8.60;99.90;;;;;;5990464;23;20004;-79
2022/03/26 00:31:33;;;;;;;46.67;17.63;;;8.40;99.90;;;;;;6056158;23;20449;-79
2022/03/26 00:34:00;;;;;;;40.28;17.23;;;8.30;99.90;;;;;;6132869;23;20013;-79
2022/03/26 00:36:27;;;;;;;43.95;18.23;;;8.10;99.90;;;;;;6187142;23;20443;-79
2022/03/26 00:38:53;;;;;;;41.33;16.40;;;8.10;99.90;;;;;;6160764;23;20115;-79
2022/03/26 00:41:20;;;;;;;47.80;19.05;;;7.90;99.90;;;;;;6160703;23;20088;-78
2022/03/26 00:43:46;;;;;;;51.45;20.50;;;7.90;99.90;;;;;;6187576;23;20036;-79
2022/03/26 00:46:13;;;;;;;48.97;19.67;;;7.90;99.90;;;;;;6136418;23;20033;-80
2022/03/26 00:48:40;;;;;;;55.20;20.02;;;8.00;99.90;;;;;;6160791;23;20009;-80
2022/03/26 00:51:06;;;;;;;51.10;21.00;;;7.90;99.90;;;;;;6136316;23;20084;-80
2022/03/26 00:53:33;;;;;;;50.72;19.13;;;7.90;99.90;;;;;;6160568;23;20080;-80
2022/03/26 00:55:59;;;;;;;48.88;20.38;;;7.80;99.90;;;;;;6136280;23;20009;-79
2022/03/26 00:58:26;;;;;;;45.58;20.92;;;7.80;99.90;;;;;;6136116;23;20009;-80
2022/03/26 01:00:54;;;;;;;48.30;20.90;;;7.70;99.90;;;;;;6160578;23;20008;-79
2022/03/26 01:03:20;;;;;;;44.05;19.98;;;7.70;99.90;;;;;;6187316;23;20080;-79
2022/03/26 01:05:47;;;;;;;42.53;19.50;;;7.60;99.90;;;;;;6161091;23;20055;-80
2022/03/26 01:08:14;;;;;;;48.28;19.58;;;7.50;99.90;;;;;;6135905;23;20012;-80
2022/03/26 01:10:47;;;;;;;59.85;20.88;;;7.40;99.90;;;;;;6160251;23;20015;-79
2022/03/26 01:13:14;;;;;;;43.72;19.10;;;7.40;99.90;;;;;;6160566;23;20013;-79
2022/03/26 01:15:41;;;;;;;40.63;19.60;;;7.40;99.90;;;;;;6135884;23;20023;-79
2022/03/26 01:18:09;;;;;;;51.35;20.08;;;7.40;99.90;;;;;;6155300;23;20028;-79
2022/03/26 01:20:37;;;;;;;44.85;20.13;;;7.40;99.90;;;;;;6157479;23;20064;-79
2022/03/26 01:23:04;;;;;;;47.50;20.10;;;7.50;99.90;;;;;;6130986;23;20391;-80
2022/03/26 01:25:30;;;;;;;53.05;20.30;;;7.50;99.90;;;;;;6131033;23;20436;-80
2022/03/26 01:27:57;;;;;;;52.45;21.05;;;7.50;99.90;;;;;;6155582;23;20440;-79
2022/03/26 01:30:27;;;;;;;43.50;19.80;;;7.40;99.90;;;;;;6157377;23;20005;-79
2022/03/26 01:32:55;;;;;;;45.60;20.20;;;7.30;99.90;;;;;;6130394;23;20023;-80
2022/03/26 01:35:22;;;;;;;49.78;21.35;;;7.30;99.90;;;;;;6130803;23;20025;-80
2022/03/26 01:37:49;;;;;;;52.72;21.48;;;7.30;99.90;;;;;;6155262;23;20036;-80
2022/03/26 01:40:16;;;;;;;51.45;20.45;;;7.30;99.90;;;;;;6155311;23;20013;-80
2022/03/26 01:42:43;;;;;;;60.75;20.50;;;7.30;99.90;;;;;;6155475;23;20110;-80
2022/03/26 01:45:14;;;;;;;42.95;18.83;;;7.20;99.90;;;;;;6156778;23;20005;-79
2022/03/26 01:47:41;;;;;;;42.63;19.48;;;7.20;99.90;;;;;;6155172;23;20012;-79
2022/03/26 01:50:08;;;;;;;42.47;19.00;;;7.20;99.90;;;;;;6130661;23;20458;-79
2022/03/26 01:52:35;;;;;;;43.30;18.90;;;7.20;99.90;;;;;;6155667;23;20076;-79
2022/03/26 01:55:02;;;;;;;47.45;20.15;;;7.20;99.90;;;;;;6155485;23;20013;-80
2022/03/26 01:57:29;;;;;;;45.55;19.67;;;7.20;99.90;;;;;;6155341;23;20432;-80
2022/03/26 01:59:56;;;;;;;40.80;18.77;;;7.20;99.90;;;;;;6130521;23;20056;-80
2022/03/26 02:02:25;;;;;;;44.60;19.15;;;7.20;99.90;;;;;;6130597;23;20087;-80
2022/03/26 02:04:52;;;;;;;41.83;17.08;;;7.20;99.90;;;;;;6130419;23;20340;-80
2022/03/26 02:07:18;;;;;;;39.47;16.77;;;7.30;99.90;;;;;;6155101;23;20012;-80
2022/03/26 02:09:45;;;;;;;39.80;17.25;;;7.30;99.90;;;;;;6130483;23;20033;-80
2022/03/26 02:12:27;;;;;;;45.40;20.67;;;7.40;99.90;;;;;;6130456;23;20444;-80
2022/03/26 02:14:55;;;;;;;66.28;22.67;;;7.40;99.90;;;;;;6154817;23;20448;-80
2022/03/26 02:17:22;;;;;;;61.75;24.05;;;7.40;99.90;;;;;;6155217;23;20016;-80
2022/03/26 02:19:56;;;;;;;56.42;22.55;;;7.50;99.90;;;;;;6155978;23;20483;-80
2022/03/26 02:22:28;;;;;;;44.72;19.08;;;7.50;99.90;;;;;;6155237;23;20376;-80
2022/03/26 02:24:57;;;;;;;41.92;19.08;;;7.40;99.90;;;;;;6130751;23;20019;-79
2022/03/26 02:27:26;;;;;;;36.53;17.60;;;7.40;99.90;;;;;;6154976;23;20013;-79
2022/03/26 02:29:54;;;;;;;46.17;19.08;;;7.20;99.90;;;;;;6155455;23;20216;-79
2022/03/26 02:32:22;;;;;;;42.90;17.48;;;7.20;99.90;;;;;;6155019;23;20009;-79
2022/03/26 02:34:50;;;;;;;50.17;19.30;;;7.20;99.90;;;;;;6154810;23;20100;-79
2022/03/26 02:37:18;;;;;;;45.15;18.75;;;7.30;99.90;;;;;;6156319;23;20383;-79
2022/03/26 02:39:45;;;;;;;44.92;20.15;;;7.20;99.90;;;;;;6155537;23;20010;-81
2022/03/26 02:42:13;;;;;;;41.65;18.88;;;7.20;99.90;;;;;;6154716;23;20016;-81
2022/03/26 02:44:41;;;;;;;47.55;19.52;;;7.00;99.90;;;;;;6154901;23;20324;-79
2022/03/26 02:47:10;;;;;;;39.38;19.63;;;7.00;99.90;;;;;;6130344;23;20017;-81
2022/03/26 02:49:38;;;;;;;44.05;17.52;;;7.00;99.90;;;;;;6130271;23;20001;-78
2022/03/26 02:52:06;;;;;;;43.63;18.92;;;6.90;99.90;;;;;;6154752;23;20009;-81
2022/03/26 02:54:35;;;;;;;43.75;18.48;;;6.80;99.90;;;;;;6154600;23;20064;-79
2022/03/26 02:57:03;;;;;;;45.67;18.00;;;6.70;99.90;;;;;;6130119;23;20005;-79
2022/03/26 02:59:29;;;;;;;44.50;19.73;;;6.50;99.90;;;;;;6154469;23;20321;-79
2022/03/26 03:01:56;;;;;;;40.13;18.80;;;6.40;99.90;;;;;;6130318;23;20044;-79
2022/03/26 03:04:24;;;;;;;45.85;19.13;;;6.40;99.90;;;;;;6154618;23;20013;-79
2022/03/26 03:06:51;;;;;;;54.28;20.45;;;6.50;99.90;;;;;;6130297;23;20012;-79
2022/03/26 03:09:18;;;;;;;39.28;18.40;;;6.50;99.90;;;;;;6130175;23;20009;-79
2022/03/26 03:11:45;;;;;;;47.63;18.88;;;6.50;99.90;;;;;;6156172;23;20016;-79
2022/03/26 03:14:12;;;;;;;47.30;18.65;;;6.40;99.90;;;;;;6156191;23;20037;-79
2022/03/26 03:16:38;;;;;;;46.85;18.63;;;6.40;99.90;;;;;;6129765;23;20461;-81
2022/03/26 03:19:05;;;;;;;45.75;18.63;;;6.40;99.90;;;;;;6129989;23;20025;-79
2022/03/26 03:21:33;;;;;;;41.50;19.30;;;6.30;99.90;;;;;;6129977;23;20017;-79
2022/03/26 03:24:00;;;;;;;49.08;21.15;;;6.20;99.90;;;;;;6129937;23;20071;-81
2022/03/26 03:26:27;;;;;;;51.13;20.27;;;6.20;99.90;;;;;;6129946;23;20001;-79
2022/03/26 03:28:54;;;;;;;48.22;21.30;;;6.20;99.90;;;;;;6129885;23;20025;-79
2022/03/26 03:31:20;;;;;;;54.42;21.42;;;6.10;99.90;;;;;;6126835;23;20050;-79
2022/03/26 03:33:47;;;;;;;48.70;20.90;;;6.10;99.90;;;;;;6130346;23;20010;-79
2022/03/26 03:36:13;;;;;;;52.38;21.70;;;6.10;99.90;;;;;;6154972;23;20048;-79
2022/03/26 03:38:40;;;;;;;54.35;22.08;;;6.10;99.90;;;;;;6130047;23;20005;-79
2022/03/26 03:41:07;;;;;;;56.20;20.92;;;6.10;99.90;;;;;;6105441;23;20072;-79
2022/03/26 03:43:34;;;;;;;54.95;21.27;;;6.10;99.90;;;;;;6129911;23;20014;-79
2022/03/26 03:46:03;;;;;;;52.95;20.25;;;6.10;99.90;;;;;;6105546;23;20001;-79
2022/03/26 03:48:30;;;;;;;46.92;20.17;;;6.10;99.90;;;;;;6129876;23;20458;-79
2022/03/26 03:50:56;;;;;;;43.83;21.35;;;6.10;99.90;;;;;;6129854;23;20006;-79
2022/03/26 03:53:23;;;;;;;45.25;18.55;;;6.10;99.90;;;;;;6129889;23;20065;-79
2022/03/26 03:55:50;;;;;;;49.30;20.98;;;6.10;99.90;;;;;;6157164;23;20074;-79
2022/03/26 03:58:16;;;;;;;45.05;20.02;;;6.00;99.90;;;;;;6157923;23;20076;-79
2022/03/26 04:00:43;;;;;;;49.92;19.65;;;6.00;99.90;;;;;;6132223;23;20005;-79
2022/03/26 04:03:09;;;;;;;51.90;20.90;;;5.90;99.90;;;;;;6131645;23;20380;-79
2022/03/26 04:05:36;;;;;;;50.05;20.08;;;5.90;99.90;;;;;;6107093;23;20012;-81
2022/03/26 04:08:03;;;;;;;46.88;20.70;;;5.80;99.90;;;;;;6132313;23;20005;-79
2022/03/26 04:10:29;;;;;;;50.63;20.50;;;5.80;99.90;;;;;;6107392;23;20029;-79
2022/03/26 04:12:56;;;;;;;55.13;22.20;;;5.70;99.90;;;;;;6131715;23;20467;-79
2022/03/26 04:15:22;;;;;;;49.00;19.88;;;5.70;99.90;;;;;;6131547;23;20026;-79
2022/03/26 04:17:52;;;;;;;48.92;20.23;;;5.70;99.90;;;;;;6148610;23;20014;-79
2022/03/26 04:20:19;;;;;;;56.45;22.08;;;5.70;99.90;;;;;;6131435;23;20009;-79
2022/03/26 04:22:45;;;;;;;50.30;22.00;;;5.50;99.90;;;;;;6101206;23;20014;-79
2022/03/26 04:25:12;;;;;;;55.05;22.00;;;5.50;99.90;;;;;;6101469;23;20013;-80
2022/03/26 04:27:43;;;;;;;53.63;21.63;;;5.50;99.90;;;;;;6100871;23;20313;-81
2022/03/26 04:30:11;;;;;;;47.55;20.83;;;5.50;99.90;;;;;;6101170;23;20010;-82
2022/03/26 04:32:38;;;;;;;53.67;20.80;;;5.50;99.90;;;;;;6101394;23;20037;-81
2022/03/26 04:35:05;;;;;;;53.97;22.17;;;5.50;99.90;;;;;;6101090;23;20344;-78
2022/03/26 04:37:34;;;;;;;55.55;21.58;;;5.50;99.90;;;;;;6125780;23;20009;-79
2022/03/26 04:40:02;;;;;;;56.58;22.50;;;5.60;99.90;;;;;;6125457;23;20017;-79
2022/03/26 04:42:29;;;;;;;54.42;21.27;;;5.60;99.90;;;;;;6101500;23;20005;-81
2022/03/26 04:44:55;;;;;;;55.47;21.17;;;5.50;99.90;;;;;;6101860;23;20329;-82
2022/03/26 04:47:27;;;;;;;50.22;21.60;;;5.50;99.90;;;;;;6101590;23;20002;-82
2022/03/26 04:49:54;;;;;;;49.15;21.33;;;5.50;99.90;;;;;;6101686;23;20022;-82
2022/03/26 04:52:20;;;;;;;50.03;21.20;;;5.50;99.90;;;;;;6101654;23;20088;-84
2022/03/26 04:54:48;;;;;;;49.47;22.02;;;5.50;99.90;;;;;;6152360;23;20045;-81
2022/03/26 04:57:17;;;;;;;50.72;20.25;;;5.60;99.90;;;;;;6131701;23;20132;-81
2022/03/26 04:59:45;;;;;;;59.22;21.65;;;5.60;99.90;;;;;;6131609;23;20018;-80
2022/03/26 05:02:12;;;;;;;52.50;20.77;;;5.60;99.90;;;;;;6131515;23;20006;-81
2022/03/26 05:04:39;;;;;;;47.55;21.83;;;5.60;99.90;;;;;;6155644;23;20334;-82
2022/03/26 05:07:45;;;;;;;48.70;21.45;;;5.60;99.90;;;;;;6131134;23;20006;-79
2022/03/26 05:09:53;;;;;;;53.88;22.73;;;5.50;99.90;;;;;;6157370;23;20009;-81
2022/03/26 05:12:19;;;;;;;49.22;21.80;;;5.50;99.90;;;;;;6157177;23;20005;-79
2022/03/26 05:14:46;;;;;;;57.67;23.58;;;5.50;99.90;;;;;;6130936;23;20347;-78
2022/03/26 05:17:13;;;;;;;59.00;23.33;;;5.50;99.90;;;;;;6172012;23;20017;-81
2022/03/26 05:19:39;;;;;;;59.35;23.38;;;5.50;99.90;;;;;;6161022;23;20009;-80
2022/03/26 05:22:06;;;;;;;52.75;21.98;;;5.50;99.90;;;;;;6161157;23;20060;-85
2022/03/26 05:24:33;;;;;;;55.92;22.45;;;5.60;99.90;;;;;;6186962;23;20305;-81
2022/03/26 05:27:01;;;;;;;57.00;22.38;;;5.60;99.90;;;;;;6160425;23;20033;-79
2022/03/26 05:29:29;;;;;;;54.10;22.60;;;5.70;99.90;;;;;;6160511;23;20008;-81
2022/03/26 05:31:56;;;;;;;45.70;22.17;;;5.80;99.90;;;;;;6187071;23;20009;-81
2022/03/26 05:34:23;;;;;;;53.42;22.20;;;5.80;99.90;;;;;;6186622;23;20013;-79
2022/03/26 05:36:50;;;;;;;55.95;23.77;;;5.90;99.90;;;;;;6160194;23;20005;-79
2022/03/26 05:39:16;;;;;;;50.50;21.48;;;6.10;99.90;;;;;;6160324;23;20431;-79
2022/03/26 05:41:43;;;;;;;59.40;22.63;;;6.20;99.90;;;;;;6135864;23;20012;-79
2022/03/26 05:44:10;;;;;;;49.17;22.50;;;6.30;99.90;;;;;;6135609;23;20454;-79
2022/03/26 05:46:36;;;;;;;48.28;21.83;;;6.40;99.90;;;;;;6160411;23;20009;-80
2022/03/26 05:49:03;;;;;;;46.47;20.52;;;6.60;99.90;;;;;;6160228;23;20112;-80
2022/03/26 05:51:30;;;;;;;56.85;21.95;;;6.70;99.90;;;;;;6186607;23;20005;-80
2022/03/26 05:53:56;;;;;;;42.15;19.15;;;6.80;99.90;;;;;;6135574;23;20028;-80
2022/03/26 05:56:23;;;;;;;45.47;18.40;;;6.90;99.90;;;;;;6160052;23;20013;-80
2022/03/26 05:58:53;;;;;;;45.95;18.63;;;7.00;99.90;;;;;;6186568;23;20029;-80
2022/03/26 06:01:22;;;;;;;56.22;17.63;;;7.20;99.90;;;;;;6186358;23;20032;-80
2022/03/26 06:03:48;;;;;;;44.53;19.40;;;7.30;99.90;;;;;;6160097;23;20033;-80
2022/03/26 06:06:15;;;;;;;42.10;18.42;;;7.50;99.90;;;;;;6135478;23;20036;-80
2022/03/26 06:08:41;;;;;;;53.15;19.58;;;7.60;99.90;;;;;;6160178;23;20008;-80
2022/03/26 06:11:08;;;;;;;47.45;19.52;;;7.80;99.90;;;;;;6159900;23;20439;-79
2022/03/26 06:13:34;;;;;;;48.28;19.20;;;7.90;99.90;;;;;;6186343;23;20009;-80
2022/03/26 06:16:00;;;;;;;44.55;17.33;;;8.10;99.90;;;;;;6135138;23;20017;-81
2022/03/26 06:18:27;;;;;;;48.58;19.95;;;8.20;99.90;;;;;;6186418;23;20383;-80
2022/03/26 06:20:53;;;;;;;43.65;18.75;;;8.40;99.90;;;;;;6135298;23;20013;-80
2022/03/26 06:23:19;;;;;;;40.10;17.75;;;8.60;99.90;;;;;;6135401;23;20001;-80
2022/03/26 06:25:46;;;;;;;43.78;17.77;;;8.70;99.90;;;;;;6160439;23;20001;-80
2022/03/26 06:28:13;;;;;;;44.47;18.15;;;8.80;99.90;;;;;;6159870;23;20091;-80
2022/03/26 06:30:40;;;;;;;39.78;17.33;;;8.90;99.90;;;;;;6159941;23;20059;-80
2022/03/26 06:33:07;;;;;;;36.33;16.67;;;8.80;99.90;;;;;;6186295;23;20016;-81
2022/03/26 06:35:33;;;;;;;33.78;16.25;;;8.90;99.90;;;;;;6159535;23;20346;-81
2022/03/26 06:38:00;;;;;;;36.58;16.55;;;9.00;99.90;;;;;;6159982;23;20005;-81
2022/03/26 06:40:26;;;;;;;36.08;16.08;;;9.10;99.90;;;;;;6186408;23;20005;-81
2022/03/26 06:42:53;;;;;;;35.25;16.20;;;9.30;99.90;;;;;;6159719;23;20016;-81
2022/03/26 06:45:19;;;;;;;48.63;19.27;;;9.50;99.90;;;;;;6160240;23;20334;-81
2022/03/26 06:47:46;;;;;;;59.55;23.10;;;9.70;99.90;;;;;;6134953;23;20009;-81
2022/03/26 06:50:12;;;;;;;69.75;27.25;;;9.90;99.90;;;;;;6159762;23;20020;-81
2022/03/26 06:52:39;;;;;;;76.63;27.15;;;10.20;99.90;;;;;;6185961;23;20012;-81
2022/03/26 06:55:06;;;;;;;77.85;28.45;;;10.60;99.90;;;;;;6159849;23;20080;-80
2022/03/26 06:57:33;;;;;;;71.50;26.38;;;10.90;99.90;;;;;;6134825;23;20047;-81
2022/03/26 07:00:05;;;;;;;64.32;24.85;;;11.20;99.90;;;;;;6159294;23;20005;-80
2022/03/26 07:02:31;;;;;;;56.65;24.55;;;11.50;99.90;;;;;;6134993;23;20009;-81
2022/03/26 07:04:58;;;;;;;60.58;22.05;;;11.80;99.90;;;;;;6159255;23;20013;-81
2022/03/26 07:07:24;;;;;;;45.45;20.60;;;12.00;99.90;;;;;;6134910;23;20016;-81
2022/03/26 07:09:51;;;;;;;44.72;19.13;;;12.20;99.90;;;;;;6159600;23;20009;-82
2022/03/26 07:12:18;;;;;;;46.58;17.42;;;12.50;99.90;;;;;;6159473;23;20015;-83
2022/03/26 07:14:45;;;;;;;36.78;16.85;;;12.90;99.90;;;;;;6186351;23;20013;-82
2022/03/26 07:17:11;;;;;;;39.85;16.50;;;13.10;99.90;;;;;;6154358;23;20097;-82
2022/03/26 07:19:38;;;;;;;35.65;15.15;;;13.30;99.90;;;;;;6130077;23;20013;-80
2022/03/26 07:22:05;;;;;;;35.85;14.95;;;13.40;99.90;;;;;;6155312;23;20005;-80
2022/03/26 07:24:31;;;;;;;31.77;13.75;;;13.60;99.90;;;;;;6153226;23;20017;-81
2022/03/26 07:26:57;;;;;;;32.13;12.60;;;13.90;99.90;;;;;;6128471;23;20088;-80
2022/03/26 07:29:24;;;;;;;21.88;10.93;;;14.30;99.90;;;;;;6153266;23;20033;-79
2022/03/26 07:31:50;;;;;;;23.27;9.43;;;14.60;99.90;;;;;;6155062;23;20392;-79
2022/03/26 07:34:17;;;;;;;21.55;9.43;;;14.90;99.90;;;;;;6156402;23;20013;-78
2022/03/26 07:36:44;;;;;;;18.23;8.13;;;15.10;99.90;;;;;;6156565;23;20088;-79
2022/03/26 07:39:12;;;;;;;19.90;8.63;;;15.20;99.90;;;;;;6156529;23;20028;-80
2022/03/26 07:41:40;;;;;;;16.95;7.53;;;15.40;99.90;;;;;;6179728;23;20344;-80
2022/03/26 07:44:07;;;;;;;17.05;8.50;;;15.80;99.90;;;;;;6155031;23;20009;-79
2022/03/26 07:46:34;;;;;;;17.85;8.45;;;16.00;99.90;;;;;;6156579;23;20128;-80
2022/03/26 07:49:01;;;;;;;16.55;7.43;;;16.00;99.90;;;;;;6154993;23;20010;-79
2022/03/26 07:51:27;;;;;;;22.65;8.88;;;16.10;99.90;;;;;;6156350;23;20002;-79
2022/03/26 07:53:54;;;;;;;20.33;9.25;;;16.00;99.90;;;;;;6154851;23;20499;-79
2022/03/26 07:56:21;;;;;;;21.52;10.85;;;16.20;99.90;;;;;;6154700;23;20013;-80
2022/03/26 07:58:49;;;;;;;22.80;10.20;;;16.30;99.90;;;;;;6130137;23;20463;-79
2022/03/26 08:01:17;;;;;;;20.08;9.98;;;16.30;99.90;;;;;;6156236;23;20002;-79
2022/03/26 08:03:43;;;;;;;21.42;9.73;;;16.20;99.90;;;;;;6154713;23;20096;-79
2022/03/26 08:06:11;;;;;;;18.40;9.40;;;16.10;99.90;;;;;;6156282;23;20005;-79
2022/03/26 08:08:37;;;;;;;17.83;9.70;;;16.10;99.90;;;;;;6155761;23;20002;-80
2022/03/26 08:11:06;;;;;;;22.33;9.60;;;15.90;99.90;;;;;;6157512;23;20081;-80
2022/03/26 08:13:33;;;;;;;17.88;8.88;;;16.00;99.90;;;;;;6157884;23;20013;-80
2022/03/26 08:16:00;;;;;;;17.67;8.02;;;16.00;99.90;;;;;;6155017;23;20713;-79
2022/03/26 08:18:26;;;;;;;20.70;8.73;;;16.20;99.90;;;;;;6185960;23;20009;-79
2022/03/26 08:20:53;;;;;;;25.08;9.88;;;16.50;99.90;;;;;;6186038;23;20040;-82
2022/03/26 08:23:19;;;;;;;20.38;9.77;;;16.90;99.90;;;;;;6135975;23;20016;-81
2022/03/26 08:28:31;;;;;;;21.23;8.63;;;17.50;99.90;;;;;;6187126;23;20009;-82
2022/03/26 08:30:58;;;;;;;15.38;7.25;;;17.10;99.90;;;;;;6136349;23;20005;-81
2022/03/26 08:33:24;;;;;;;19.00;8.45;;;17.90;99.90;;;;;;6160876;23;20629;-81
2022/03/26 08:35:50;;;;;;;19.33;6.72;;;18.70;99.90;;;;;;6136213;23;20092;-83
2022/03/26 08:38:17;;;;;;;11.55;6.05;;;19.30;99.90;;;;;;6136333;23;20328;-81
2022/03/26 08:40:44;;;;;;;17.92;6.72;;;19.80;99.90;;;;;;6160893;23;20461;-80
2022/03/26 08:43:10;;;;;;;12.10;6.88;;;19.70;99.90;;;;;;6187137;23;20081;-79
2022/03/26 08:45:37;;;;;;;12.77;5.82;;;19.60;99.90;;;;;;6187156;23;20005;-81
2022/03/26 08:48:05;;;;;;;15.68;6.68;;;19.70;99.90;;;;;;6160716;23;20009;-82
2022/03/26 08:50:33;;;;;;;16.55;7.03;;;19.70;99.90;;;;;;6160598;23;20009;-80
2022/03/26 08:52:59;;;;;;;14.32;6.57;;;19.40;99.90;;;;;;6160840;23;20424;-80
2022/03/26 08:55:26;;;;;;;9.70;5.15;;;19.00;99.90;;;;;;6186898;23;20383;-80
2022/03/26 08:57:53;;;;;;;16.90;6.88;;;18.90;99.90;;;;;;6187016;23;20082;-80
2022/03/26 09:00:21;;;;;;;11.93;5.80;;;18.40;99.90;;;;;;6160746;23;20029;-80
2022/03/26 09:02:48;;;;;;;14.18;5.97;;;18.00;99.90;;;;;;6187080;23;20005;-80
2022/03/26 09:05:15;;;;;;;15.48;5.88;;;17.60;99.90;;;;;;6187186;23;20064;-88
2022/03/26 09:07:42;;;;;;;13.93;5.32;;;17.40;99.90;;;;;;6137014;23;20020;-86
2022/03/26 09:10:09;;;;;;;12.82;5.97;;;17.30;99.90;;;;;;6136998;23;20063;-88
2022/03/26 09:12:36;;;;;;;19.98;7.15;;;17.20;99.90;;;;;;6130232;23;20013;-87
2022/03/26 09:15:06;;;;;;;12.63;5.43;;;17.10;99.90;;;;;;6136865;23;20013;-87
2022/03/26 09:17:37;;;;;;;10.80;5.68;;;17.00;99.90;;;;;;6156380;23;20092;-87
2022/03/26 09:20:09;;;;;;;12.15;5.53;;;16.90;99.90;;;;;;6132340;23;20092;-87
2022/03/26 09:22:36;;;;;;;15.93;6.53;;;16.90;99.90;;;;;;6132542;23;20036;-90
2022/03/26 09:25:05;;;;;;;15.35;6.47;;;16.90;99.90;;;;;;6132368;23;20009;-91
2022/03/26 09:27:35;;;;;;;13.80;6.63;;;16.90;99.90;;;;;;6132031;23;20060;-90
2022/03/26 09:30:06;;;;;;;14.85;6.93;;;16.90;99.90;;;;;;6132291;23;20010;-89
2022/03/26 09:32:33;;;;;;;13.75;6.50;;;16.80;99.90;;;;;;6132028;23;20013;-86
2022/03/26 09:34:59;;;;;;;10.18;5.47;;;16.90;99.90;;;;;;6131799;23;20117;-86
2022/03/26 09:37:26;;;;;;;10.65;5.30;;;16.90;99.90;;;;;;6131744;23;20058;-83
2022/03/26 09:39:54;;;;;;;14.90;6.85;;;16.90;99.90;;;;;;6131186;23;20014;-82
2022/03/26 09:42:23;;;;;;;13.10;7.10;;;16.90;99.90;;;;;;6131390;23;20009;-84
2022/03/26 09:44:58;;;;;;;14.98;6.22;;;16.90;99.90;;;;;;6130996;23;20006;-81
2022/03/26 09:47:25;;;;;;;18.65;6.22;;;16.90;99.90;;;;;;6155936;23;20072;-83
2022/03/26 09:49:52;;;;;;;14.50;6.15;;;17.00;99.90;;;;;;6155821;23;20427;-83
2022/03/26 09:52:19;;;;;;;14.07;5.43;;;16.90;99.90;;;;;;6180233;23;20014;-82
2022/03/26 09:54:45;;;;;;;12.57;5.82;;;16.90;99.90;;;;;;6155593;23;20017;-84
2022/03/26 09:57:12;;;;;;;16.25;6.22;;;17.00;99.90;;;;;;6155741;23;20005;-83
2022/03/26 09:59:42;;;;;;;12.38;6.35;;;17.10;99.90;;;;;;6130974;23;20017;-82
2022/03/26 10:02:11;;;;;;;14.13;5.88;;;17.10;99.90;;;;;;6156915;23;20028;-82
2022/03/26 10:04:43;;;;;;;12.38;6.57;;;17.10;99.90;;;;;;6130893;23;20428;-85
2022/03/26 10:07:12;;;;;;;11.60;5.75;;;17.20;99.90;;;;;;6132204;23;20029;-86
2022/03/26 10:09:46;;;;;;;19.08;6.13;;;17.10;99.90;;;;;;6131485;23;20093;-85
2022/03/26 10:12:21;;;;;;;19.17;6.75;;;17.10;99.90;;;;;;6131964;23;20451;-85
2022/03/26 10:14:51;;;;;;;13.68;5.95;;;17.00;99.90;;;;;;6131559;23;20052;-85
2022/03/26 10:17:25;;;;;;;18.42;6.10;;;17.10;99.90;;;;;;6131067;23;20041;-87
2022/03/26 10:20:13;;;;;;;14.93;6.18;;;17.10;99.90;;;;;;6131395;23;20096;-86
2022/03/26 10:22:51;;;;;;;15.68;5.97;;;17.00;99.90;;;;;;6106990;23;20396;-88
2022/03/26 10:25:23;;;;;;;14.70;6.38;;;17.00;99.90;;;;;;6108342;23;20016;-89
2022/03/26 10:28:00;;;;;;;15.25;6.38;;;17.00;99.90;;;;;;6111403;23;20436;-90
2022/03/26 10:33:24;;;;;;;13.05;5.22;;;17.00;99.90;;;;;;6131727;23;20012;-92
2022/03/26 10:36:00;;;;;;;15.27;5.50;;;17.00;99.90;;;;;;6107039;23;20037;-88
2022/03/26 10:38:31;;;;;;;11.48;5.00;;;17.10;99.90;;;;;;6106295;23;20005;-87
2022/03/26 10:41:06;;;;;;;10.48;5.55;;;17.30;99.90;;;;;;6107014;23;20009;-87
2022/03/26 10:43:34;;;;;;;15.75;6.43;;;17.30;99.90;;;;;;6106941;23;20037;-89
2022/03/26 10:46:01;;;;;;;11.10;6.20;;;17.40;99.90;;;;;;6108385;23;20435;-83
2022/03/26 10:48:34;;;;;;;11.57;5.57;;;17.40;99.90;;;;;;6130251;23;20013;-80
2022/03/26 10:51:03;;;;;;;11.43;5.32;;;17.50;99.90;;;;;;6130329;23;20344;-80
2022/03/26 10:53:49;;;;;;;13.85;5.63;;;17.50;99.90;;;;;;6130246;23;20014;-80
2022/03/26 10:56:20;;;;;;;8.10;5.30;;;17.50;99.90;;;;;;6105680;23;20018;-81
2022/03/26 10:58:47;;;;;;;14.57;5.88;;;17.50;99.90;;;;;;6130183;23;20013;-82
2022/03/26 11:01:16;;;;;;;10.73;5.65;;;17.60;99.90;;;;;;6156634;23;20006;-83
2022/03/26 11:03:43;;;;;;;13.10;5.40;;;17.60;99.90;;;;;;6131087;23;20002;-85
2022/03/26 11:06:11;;;;;;;10.75;4.60;;;17.60;99.90;;;;;;6106894;23;20009;-86
2022/03/26 11:08:38;;;;;;;12.30;5.80;;;17.70;99.90;;;;;;6106944;23;20025;-86
2022/03/26 11:11:08;;;;;;;11.45;5.18;;;17.70;99.90;;;;;;6106756;23;20005;-84
2022/03/26 11:13:39;;;;;;;9.40;5.00;;;17.70;99.90;;;;;;6105873;23;20052;-83
2022/03/26 11:16:49;;;;;;;15.73;5.72;;;17.80;99.90;;;;;;6106240;23;20447;-83
2022/03/26 11:19:28;;;;;;;13.27;5.68;;;17.80;99.90;;;;;;6066435;23;20015;-84
2022/03/26 11:22:21;;;;;;;8.65;4.88;;;17.70;99.90;;;;;;6018734;23;20018;-83
2022/03/26 11:25:15;;;;;;;10.10;6.03;;;17.70;99.90;;;;;;6042925;23;20011;-83
2022/03/26 11:28:27;;;;;;;11.10;5.45;;;17.80;99.90;;;;;;6042300;23;20098;-83
2022/03/26 11:31:05;;;;;;;9.65;4.72;;;17.80;99.90;;;;;;6019099;23;20094;-84
2022/03/26 11:33:37;;;;;;;9.45;5.50;;;17.80;99.90;;;;;;6042225;23;20058;-83
2022/03/26 11:36:06;;;;;;;9.90;4.93;;;17.90;99.90;;;;;;6040818;23;20411;-83
2022/03/26 11:38:33;;;;;;;10.52;4.95;;;17.80;99.90;;;;;;6040574;23;20103;-83
2022/03/26 11:41:06;;;;;;;10.48;4.88;;;17.80;99.90;;;;;;6042388;23;20069;-88
2022/03/26 11:43:43;;;;;;;11.00;4.88;;;17.80;99.90;;;;;;6042740;23;20007;-83
2022/03/26 11:52:18;;;;;;;10.38;5.75;;;17.90;99.90;;;;;;6042298;23;20363;-84
2022/03/26 11:54:46;;;;;;;12.50;5.85;;;17.90;99.90;;;;;;5981724;23;20410;-84
2022/03/26 11:57:22;;;;;;;9.80;5.35;;;18.00;99.90;;;;;;6066786;23;20018;-84
2022/03/26 11:59:50;;;;;;;11.02;5.07;;;18.00;99.90;;;;;;6066546;23;20015;-83
2022/03/26 12:02:20;;;;;;;15.60;5.53;;;18.00;99.90;;;;;;6042796;23;20461;-84
2022/03/26 12:04:55;;;;;;;10.00;4.93;;;18.00;99.90;;;;;;6066403;23;20011;-84
2022/03/26 12:07:25;;;;;;;11.15;4.90;;;17.90;99.90;;;;;;6066174;23;20022;-86
2022/03/26 12:10:04;;;;;;;9.90;6.05;;;17.90;99.90;;;;;;6066965;23;20011;-86
2022/03/26 12:12:59;;;;;;;13.07;5.28;;;17.80;99.90;;;;;;6066586;23;20015;-84
2022/03/26 12:15:34;;;;;;;11.52;6.15;;;18.00;99.90;;;;;;6066530;23;20106;-84
2022/03/26 12:18:07;;;;;;;9.90;5.15;;;18.00;99.90;;;;;;6062458;23;20019;-85
2022/03/26 12:20:44;;;;;;;12.68;5.68;;;18.10;99.90;;;;;;6044666;23;20015;-84
2022/03/26 12:23:19;;;;;;;14.82;5.53;;;18.10;99.90;;;;;;6044041;23;20422;-84
2022/03/26 12:25:50;;;;;;;;;;;18.10;99.90;;;;;;6020717;23;20011;-87
2022/03/26 12:28:33;;;;;;;10.95;4.57;;;18.10;99.90;;;;;;6067918;23;19941;-85
2022/03/26 12:31:06;;;;;;;12.13;5.63;;;18.10;99.90;;;;;;6049273;23;20012;-84
2022/03/26 12:33:44;;;;;;;12.90;5.97;;;18.10;99.90;;;;;;6106605;23;20096;-84
2022/03/26 12:36:12;;;;;;;10.90;5.70;;;18.20;99.90;;;;;;6106596;23;20455;-85
2022/03/26 12:38:39;;;;;;;13.38;5.82;;;18.20;99.90;;;;;;6106608;23;20014;-82
2022/03/26 12:41:08;;;;;;;13.18;5.95;;;18.10;99.90;;;;;;6106583;23;20524;-83
2022/03/26 12:43:35;;;;;;;15.48;5.38;;;18.00;99.90;;;;;;6156937;23;20021;-85
2022/03/26 12:46:09;;;;;;;11.18;5.40;;;18.00;99.90;;;;;;6106637;23;20013;-85
2022/03/26 12:48:36;;;;;;;14.27;7.05;;;18.00;99.90;;;;;;6106741;23;20371;-84
2022/03/26 12:51:06;;;;;;;11.05;6.05;;;17.90;99.90;;;;;;6105488;23;20012;-85
2022/03/26 12:53:39;;;;;;;14.82;6.38;;;17.90;99.90;;;;;;6106211;23;20032;-87
2022/03/26 12:56:11;;;;;;;16.38;6.40;;;17.90;99.90;;;;;;6107775;23;20021;-84